sensor_id;sensor_type;location;lat;lon;timestamp;temperature;humidity
64869;DHT22;51349;52.424;10.840;2023-05-29T00:03:24;12.00;94.70
64869;DHT22;51349;52.424;10.840;2023-05-29T00:08:24;12.00;95.30
64869;DHT22;51349;52.424;10.840;2023-05-29T00:13:25;11.90;96.00
64869;DHT22;51349;52.424;10.840;2023-05-29T00:18:26;11.80;96.20
64869;DHT22;51349;52.424;10.840;2023-05-29T00:23:27;11.80;96.60
64869;DHT22;51349;52.424;10.840;2023-05-29T00:28:28;11.70;97.50
64869;DHT22;51349;52.424;10.840;2023-05-29T00:33:28;11.60;97.50
64869;DHT22;51349;52.424;10.840;2023-05-29T00:38:29;11.50;98.50
64869;DHT22;51349;52.424;10.840;2023-05-29T00:43:30;11.50;99.10
64869;DHT22;51349;52.424;10.840;2023-05-29T00:48:30;11.40;99.10
64869;DHT22;51349;52.424;10.840;2023-05-29T00:53:31;11.50;99.40
64869;DHT22;51349;52.424;10.840;2023-05-29T00:58:33;11.50;99.90
64869;DHT22;51349;52.424;10.840;2023-05-29T01:03:34;11.60;99.90
64869;DHT22;51349;52.424;10.840;2023-05-29T01:08:36;11.60;99.90
64869;DHT22;51349;52.424;10.840;2023-05-29T01:13:37;11.50;99.90
64869;DHT22;51349;52.424;10.840;2023-05-29T01:19:04;11.40;99.90
64869;DHT22;51349;52.424;10.840;2023-05-29T01:24:17;11.30;99.90
64869;DHT22;51349;52.424;10.840;2023-05-29T01:29:24;11.20;99.90
64869;DHT22;51349;52.424;10.840;2023-05-29T01:34:26;11.10;99.90
64869;DHT22;51349;52.424;10.840;2023-05-29T01:39:27;11.00;99.90
64869;DHT22;51349;52.424;10.840;2023-05-29T01:44:28;10.90;99.90
64869;DHT22;51349;52.424;10.840;2023-05-29T01:49:31;10.90;99.90
64869;DHT22;51349;52.424;10.840;2023-05-29T01:54:32;10.70;99.90
64869;DHT22;51349;52.424;10.840;2023-05-29T01:59:33;10.70;99.90
64869;DHT22;51349;52.424;10.840;2023-05-29T02:04:35;10.60;99.90
64869;DHT22;51349;52.424;10.840;2023-05-29T02:09:36;10.50;99.90
64869;DHT22;51349;52.424;10.840;2023-05-29T02:14:37;10.50;99.90
64869;DHT22;51349;52.424;10.840;2023-05-29T02:19:37;10.50;99.90
64869;DHT22;51349;52.424;10.840;2023-05-29T02:24:38;10.40;99.90
64869;DHT22;51349;52.424;10.840;2023-05-29T02:29:39;10.30;99.90
64869;DHT22;51349;52.424;10.840;2023-05-29T02:34:39;10.20;99.90
64869;DHT22;51349;52.424;10.840;2023-05-29T02:39:40;10.30;99.90
64869;DHT22;51349;52.424;10.840;2023-05-29T02:44:41;10.30;99.90
64869;DHT22;51349;52.424;10.840;2023-05-29T02:49:41;10.30;99.90
64869;DHT22;51349;52.424;10.840;2023-05-29T02:54:42;10.40;99.90
64869;DHT22;51349;52.424;10.840;2023-05-29T02:59:43;10.50;99.90
64869;DHT22;51349;52.424;10.840;2023-05-29T03:04:45;10.60;99.90
64869;DHT22;51349;52.424;10.840;2023-05-29T03:09:45;10.60;99.90
64869;DHT22;51349;52.424;10.840;2023-05-29T03:14:46;10.60;99.90
64869;DHT22;51349;52.424;10.840;2023-05-29T03:19:47;10.60;99.90
64869;DHT22;51349;52.424;10.840;2023-05-29T03:24:47;10.50;99.90
64869;DHT22;51349;52.424;10.840;2023-05-29T03:29:48;10.40;99.90
64869;DHT22;51349;52.424;10.840;2023-05-29T03:34:48;10.30;99.90
64869;DHT22;51349;52.424;10.840;2023-05-29T03:39:49;10.30;99.90
64869;DHT22;51349;52.424;10.840;2023-05-29T03:44:50;10.30;99.90
64869;DHT22;51349;52.424;10.840;2023-05-29T03:49:52;10.30;99.90
64869;DHT22;51349;52.424;10.840;2023-05-29T03:54:52;10.20;99.90
64869;DHT22;51349;52.424;10.840;2023-05-29T03:59:53;10.30;99.90
64869;DHT22;51349;52.424;10.840;2023-05-29T04:04:53;10.40;99.90
64869;DHT22;51349;52.424;10.840;2023-05-29T04:09:55;10.50;99.90
64869;DHT22;51349;52.424;10.840;2023-05-29T04:14:56;10.60;99.90
64869;DHT22;51349;52.424;10.840;2023-05-29T04:19:56;10.70;99.90
64869;DHT22;51349;52.424;10.840;2023-05-29T04:24:57;10.80;99.90
64869;DHT22;51349;52.424;10.840;2023-05-29T04:29:58;11.00;99.90
64869;DHT22;51349;52.424;10.840;2023-05-29T04:34:59;11.10;99.90
64869;DHT22;51349;52.424;10.840;2023-05-29T04:40:07;11.30;99.90
64869;DHT22;51349;52.424;10.840;2023-05-29T04:45:11;11.40;99.90
64869;DHT22;51349;52.424;10.840;2023-05-29T04:50:13;11.60;99.90
64869;DHT22;51349;52.424;10.840;2023-05-29T04:55:13;11.70;99.90
64869;DHT22;51349;52.424;10.840;2023-05-29T05:00:15;11.80;99.90
64869;DHT22;51349;52.424;10.840;2023-05-29T05:05:16;12.00;99.90
64869;DHT22;51349;52.424;10.840;2023-05-29T05:10:16;12.20;99.90
64869;DHT22;51349;52.424;10.840;2023-05-29T05:15:17;12.30;99.90
64869;DHT22;51349;52.424;10.840;2023-05-29T05:20:18;12.40;99.90
64869;DHT22;51349;52.424;10.840;2023-05-29T05:25:18;12.50;99.90
64869;DHT22;51349;52.424;10.840;2023-05-29T05:30:19;12.60;99.90
64869;DHT22;51349;52.424;10.840;2023-05-29T05:35:20;12.70;99.90
64869;DHT22;51349;52.424;10.840;2023-05-29T05:40:21;12.90;99.90
64869;DHT22;51349;52.424;10.840;2023-05-29T05:45:21;13.00;99.90
64869;DHT22;51349;52.424;10.840;2023-05-29T05:50:22;13.10;99.90
64869;DHT22;51349;52.424;10.840;2023-05-29T05:55:23;13.20;99.90
64869;DHT22;51349;52.424;10.840;2023-05-29T06:00:23;13.40;99.90
64869;DHT22;51349;52.424;10.840;2023-05-29T06:05:24;13.50;99.90
64869;DHT22;51349;52.424;10.840;2023-05-29T06:10:25;13.80;99.90
64869;DHT22;51349;52.424;10.840;2023-05-29T06:15:26;14.00;99.90
64869;DHT22;51349;52.424;10.840;2023-05-29T06:20:26;14.10;99.90
64869;DHT22;51349;52.424;10.840;2023-05-29T06:25:29;14.30;99.90
64869;DHT22;51349;52.424;10.840;2023-05-29T06:30:33;14.40;99.90
64869;DHT22;51349;52.424;10.840;2023-05-29T06:35:34;14.60;99.90
64869;DHT22;51349;52.424;10.840;2023-05-29T06:40:35;14.90;99.90
64869;DHT22;51349;52.424;10.840;2023-05-29T06:45:35;15.20;99.90
64869;DHT22;51349;52.424;10.840;2023-05-29T06:50:36;15.50;99.90
64869;DHT22;51349;52.424;10.840;2023-05-29T06:55:37;15.70;99.90
64869;DHT22;51349;52.424;10.840;2023-05-29T07:00:38;16.00;99.90
64869;DHT22;51349;52.424;10.840;2023-05-29T07:05:39;16.00;99.90
64869;DHT22;51349;52.424;10.840;2023-05-29T07:10:39;16.20;99.90
64869;DHT22;51349;52.424;10.840;2023-05-29T07:15:40;16.30;99.90
64869;DHT22;51349;52.424;10.840;2023-05-29T07:20:41;16.50;99.90
64869;DHT22;51349;52.424;10.840;2023-05-29T07:25:42;16.60;99.90
64869;DHT22;51349;52.424;10.840;2023-05-29T07:30:42;16.90;99.90
64869;DHT22;51349;52.424;10.840;2023-05-29T07:35:43;17.50;99.90
64869;DHT22;51349;52.424;10.840;2023-05-29T07:40:44;17.90;99.90
64869;DHT22;51349;52.424;10.840;2023-05-29T07:45:45;17.70;99.90
64869;DHT22;51349;52.424;10.840;2023-05-29T07:50:45;18.30;99.90
64869;DHT22;51349;52.424;10.840;2023-05-29T07:55:46;19.10;99.90
64869;DHT22;51349;52.424;10.840;2023-05-29T08:00:46;19.10;99.90
64869;DHT22;51349;52.424;10.840;2023-05-29T08:05:48;19.10;99.90
64869;DHT22;51349;52.424;10.840;2023-05-29T08:10:49;20.00;99.90
64869;DHT22;51349;52.424;10.840;2023-05-29T08:15:49;20.60;99.80
64869;DHT22;51349;52.424;10.840;2023-05-29T08:20:50;21.10;99.40
64869;DHT22;51349;52.424;10.840;2023-05-29T08:25:51;21.10;98.60
64869;DHT22;51349;52.424;10.840;2023-05-29T08:30:52;21.30;97.20
64869;DHT22;51349;52.424;10.840;2023-05-29T08:35:52;21.60;98.70
64869;DHT22;51349;52.424;10.840;2023-05-29T08:40:56;22.30;97.10
64869;DHT22;51349;52.424;10.840;2023-05-29T08:46:00;22.30;96.90
64869;DHT22;51349;52.424;10.840;2023-05-29T08:51:02;22.90;95.60
64869;DHT22;51349;52.424;10.840;2023-05-29T08:56:04;23.20;94.70
64869;DHT22;51349;52.424;10.840;2023-05-29T09:01:06;22.90;94.10
64869;DHT22;51349;52.424;10.840;2023-05-29T09:06:07;22.90;93.40
64869;DHT22;51349;52.424;10.840;2023-05-29T09:11:08;22.30;91.10
64869;DHT22;51349;52.424;10.840;2023-05-29T09:16:09;22.60;94.00
64869;DHT22;51349;52.424;10.840;2023-05-29T09:21:10;23.30;93.30
64869;DHT22;51349;52.424;10.840;2023-05-29T09:26:14;24.00;92.10
64869;DHT22;51349;52.424;10.840;2023-05-29T09:31:15;22.50;86.00
64869;DHT22;51349;52.424;10.840;2023-05-29T09:36:24;22.80;90.40
64869;DHT22;51349;52.424;10.840;2023-05-29T09:41:26;23.80;90.50
64869;DHT22;51349;52.424;10.840;2023-05-29T09:46:26;23.50;91.00
64869;DHT22;51349;52.424;10.840;2023-05-29T09:51:27;23.30;90.60
64869;DHT22;51349;52.424;10.840;2023-05-29T09:56:28;23.60;85.20
64869;DHT22;51349;52.424;10.840;2023-05-29T10:01:30;23.80;84.70
64869;DHT22;51349;52.424;10.840;2023-05-29T10:06:32;23.60;87.50
64869;DHT22;51349;52.424;10.840;2023-05-29T10:11:37;24.00;84.70
64869;DHT22;51349;52.424;10.840;2023-05-29T10:16:42;24.10;84.50
64869;DHT22;51349;52.424;10.840;2023-05-29T10:21:43;24.10;83.80
64869;DHT22;51349;52.424;10.840;2023-05-29T10:26:47;22.80;81.10
64869;DHT22;51349;52.424;10.840;2023-05-29T10:47:41;23.70;85.90
64869;DHT22;51349;52.424;10.840;2023-05-29T10:52:46;23.20;79.60
64869;DHT22;51349;52.424;10.840;2023-05-29T10:57:48;23.70;80.30
64869;DHT22;51349;52.424;10.840;2023-05-29T11:02:52;23.00;81.00
64869;DHT22;51349;52.424;10.840;2023-05-29T11:07:57;23.40;82.10
64869;DHT22;51349;52.424;10.840;2023-05-29T11:12:58;23.20;80.90
64869;DHT22;51349;52.424;10.840;2023-05-29T11:18:07;23.30;78.10
64869;DHT22;51349;52.424;10.840;2023-05-29T11:23:08;22.20;82.40
64869;DHT22;51349;52.424;10.840;2023-05-29T11:28:16;22.50;81.70
64869;DHT22;51349;52.424;10.840;2023-05-29T11:33:24;23.00;80.50
64869;DHT22;51349;52.424;10.840;2023-05-29T11:38:26;22.60;77.30
64869;DHT22;51349;52.424;10.840;2023-05-29T11:43:27;22.40;75.00
64869;DHT22;51349;52.424;10.840;2023-05-29T11:48:28;22.90;79.80
64869;DHT22;51349;52.424;10.840;2023-05-29T11:53:29;23.20;78.80
64869;DHT22;51349;52.424;10.840;2023-05-29T11:58:30;22.30;74.40
64869;DHT22;51349;52.424;10.840;2023-05-29T12:03:30;22.00;77.90
64869;DHT22;51349;52.424;10.840;2023-05-29T12:08:31;22.30;72.20
64869;DHT22;51349;52.424;10.840;2023-05-29T12:13:32;22.20;73.30
64869;DHT22;51349;52.424;10.840;2023-05-29T12:18:33;22.00;77.50
64869;DHT22;51349;52.424;10.840;2023-05-29T12:23:34;21.70;77.80
64869;DHT22;51349;52.424;10.840;2023-05-29T12:28:35;22.10;79.60
64869;DHT22;51349;52.424;10.840;2023-05-29T12:33:36;22.30;76.30
64869;DHT22;51349;52.424;10.840;2023-05-29T12:38:48;22.30;78.30
64869;DHT22;51349;52.424;10.840;2023-05-29T12:43:49;22.40;77.20
64869;DHT22;51349;52.424;10.840;2023-05-29T12:48:55;22.50;74.60
64869;DHT22;51349;52.424;10.840;2023-05-29T12:53:56;22.30;74.60
64869;DHT22;51349;52.424;10.840;2023-05-29T12:58:58;22.60;77.20
64869;DHT22;51349;52.424;10.840;2023-05-29T13:03:59;22.70;75.80
64869;DHT22;51349;52.424;10.840;2023-05-29T13:09:00;22.40;74.60
64869;DHT22;51349;52.424;10.840;2023-05-29T13:14:01;22.30;77.80
64869;DHT22;51349;52.424;10.840;2023-05-29T13:19:01;22.30;73.80
64869;DHT22;51349;52.424;10.840;2023-05-29T13:24:02;21.60;74.90
64869;DHT22;51349;52.424;10.840;2023-05-29T13:29:03;21.50;76.60
64869;DHT22;51349;52.424;10.840;2023-05-29T13:34:03;21.70;77.80
64869;DHT22;51349;52.424;10.840;2023-05-29T13:39:04;21.80;74.50
64869;DHT22;51349;52.424;10.840;2023-05-29T13:44:06;21.40;75.60
64869;DHT22;51349;52.424;10.840;2023-05-29T13:49:07;21.70;77.10
64869;DHT22;51349;52.424;10.840;2023-05-29T13:54:08;21.40;75.60
64869;DHT22;51349;52.424;10.840;2023-05-29T13:59:09;21.70;76.20
64869;DHT22;51349;52.424;10.840;2023-05-29T14:04:10;21.40;74.10
64869;DHT22;51349;52.424;10.840;2023-05-29T14:09:11;21.50;73.90
64869;DHT22;51349;52.424;10.840;2023-05-29T14:14:12;21.60;70.40
64869;DHT22;51349;52.424;10.840;2023-05-29T14:19:12;21.60;71.00
64869;DHT22;51349;52.424;10.840;2023-05-29T14:24:13;21.50;68.90
64869;DHT22;51349;52.424;10.840;2023-05-29T14:29:16;21.40;68.80
64869;DHT22;51349;52.424;10.840;2023-05-29T14:34:16;21.60;64.90
64869;DHT22;51349;52.424;10.840;2023-05-29T14:39:17;21.50;63.40
64869;DHT22;51349;52.424;10.840;2023-05-29T14:44:18;21.40;63.80
64869;DHT22;51349;52.424;10.840;2023-05-29T14:49:19;21.40;62.50
64869;DHT22;51349;52.424;10.840;2023-05-29T14:54:20;21.50;60.50
64869;DHT22;51349;52.424;10.840;2023-05-29T14:59:21;21.30;61.10
64869;DHT22;51349;52.424;10.840;2023-05-29T15:04:21;21.10;60.70
64869;DHT22;51349;52.424;10.840;2023-05-29T15:09:22;21.30;60.80
64869;DHT22;51349;52.424;10.840;2023-05-29T15:14:23;21.40;60.80
64869;DHT22;51349;52.424;10.840;2023-05-29T15:19:24;21.40;59.40
64869;DHT22;51349;52.424;10.840;2023-05-29T15:24:24;21.20;59.00
64869;DHT22;51349;52.424;10.840;2023-05-29T15:29:25;21.30;59.60
64869;DHT22;51349;52.424;10.840;2023-05-29T15:34:26;21.60;57.80
64869;DHT22;51349;52.424;10.840;2023-05-29T15:39:27;21.50;56.00
64869;DHT22;51349;52.424;10.840;2023-05-29T15:44:27;21.40;56.30
64869;DHT22;51349;52.424;10.840;2023-05-29T15:49:28;21.10;56.10
64869;DHT22;51349;52.424;10.840;2023-05-29T15:54:29;21.20;56.50
64869;DHT22;51349;52.424;10.840;2023-05-29T15:59:29;21.30;56.80
64869;DHT22;51349;52.424;10.840;2023-05-29T16:04:30;21.40;55.20
64869;DHT22;51349;52.424;10.840;2023-05-29T16:09:32;21.30;53.30
64869;DHT22;51349;52.424;10.840;2023-05-29T16:14:32;21.10;53.80
64869;DHT22;51349;52.424;10.840;2023-05-29T16:19:33;21.20;54.30
64869;DHT22;51349;52.424;10.840;2023-05-29T16:24:34;21.40;56.20
64869;DHT22;51349;52.424;10.840;2023-05-29T16:29:34;21.40;55.20
64869;DHT22;51349;52.424;10.840;2023-05-29T16:34:35;21.30;55.80
64869;DHT22;51349;52.424;10.840;2023-05-29T16:39:37;21.80;56.90
64869;DHT22;51349;52.424;10.840;2023-05-29T16:44:38;21.70;55.90
64869;DHT22;51349;52.424;10.840;2023-05-29T16:49:39;21.60;55.50
64869;DHT22;51349;52.424;10.840;2023-05-29T16:54:42;21.60;55.50
64869;DHT22;51349;52.424;10.840;2023-05-29T16:59:43;21.50;54.60
64869;DHT22;51349;52.424;10.840;2023-05-29T17:04:44;21.50;54.80
64869;DHT22;51349;52.424;10.840;2023-05-29T17:09:45;21.40;54.50
64869;DHT22;51349;52.424;10.840;2023-05-29T17:14:45;21.10;54.30
64869;DHT22;51349;52.424;10.840;2023-05-29T17:19:46;21.10;56.20
64869;DHT22;51349;52.424;10.840;2023-05-29T17:24:50;21.10;56.40
64869;DHT22;51349;52.424;10.840;2023-05-29T17:29:50;20.80;57.60
64869;DHT22;51349;52.424;10.840;2023-05-29T17:34:51;20.50;57.30
64869;DHT22;51349;52.424;10.840;2023-05-29T17:39:53;20.30;58.20
64869;DHT22;51349;52.424;10.840;2023-05-29T17:44:54;20.10;59.40
64869;DHT22;51349;52.424;10.840;2023-05-29T17:49:55;19.80;57.80
64869;DHT22;51349;52.424;10.840;2023-05-29T17:54:55;19.60;58.10
64869;DHT22;51349;52.424;10.840;2023-05-29T17:59:56;19.60;58.50
64869;DHT22;51349;52.424;10.840;2023-05-29T18:04:57;19.50;58.20
64869;DHT22;51349;52.424;10.840;2023-05-29T18:09:57;19.20;58.10
64869;DHT22;51349;52.424;10.840;2023-05-29T18:14:58;19.00;57.70
64869;DHT22;51349;52.424;10.840;2023-05-29T18:19:59;18.80;57.90
64869;DHT22;51349;52.424;10.840;2023-05-29T18:24:59;18.60;58.30
64869;DHT22;51349;52.424;10.840;2023-05-29T18:30:00;18.50;59.80
64869;DHT22;51349;52.424;10.840;2023-05-29T18:35:01;18.30;59.60
64869;DHT22;51349;52.424;10.840;2023-05-29T18:40:02;18.20;61.20
64869;DHT22;51349;52.424;10.840;2023-05-29T18:45:14;18.00;61.60
64869;DHT22;51349;52.424;10.840;2023-05-29T18:50:21;17.80;62.80
64869;DHT22;51349;52.424;10.840;2023-05-29T18:55:25;17.70;62.70
64869;DHT22;51349;52.424;10.840;2023-05-29T19:00:29;17.50;64.70
64869;DHT22;51349;52.424;10.840;2023-05-29T19:05:35;17.20;66.80
64869;DHT22;51349;52.424;10.840;2023-05-29T19:10:37;17.00;65.70
64869;DHT22;51349;52.424;10.840;2023-05-29T19:15:41;16.80;67.20
64869;DHT22;51349;52.424;10.840;2023-05-29T19:20:43;16.60;68.20
64869;DHT22;51349;52.424;10.840;2023-05-29T19:25:49;16.40;68.40
64869;DHT22;51349;52.424;10.840;2023-05-29T19:30:52;16.20;68.80
64869;DHT22;51349;52.424;10.840;2023-05-29T19:35:52;16.00;69.80
64869;DHT22;51349;52.424;10.840;2023-05-29T19:40:53;15.90;72.00
64869;DHT22;51349;52.424;10.840;2023-05-29T19:45:54;15.70;70.60
64869;DHT22;51349;52.424;10.840;2023-05-29T19:50:54;15.60;72.10
64869;DHT22;51349;52.424;10.840;2023-05-29T19:55:55;15.40;72.70
64869;DHT22;51349;52.424;10.840;2023-05-29T20:00:57;15.20;73.60
64869;DHT22;51349;52.424;10.840;2023-05-29T20:05:58;15.00;74.30
64869;DHT22;51349;52.424;10.840;2023-05-29T20:11:01;14.80;75.10
64869;DHT22;51349;52.424;10.840;2023-05-29T20:16:02;14.60;76.00
64869;DHT22;51349;52.424;10.840;2023-05-29T20:21:03;14.40;76.20
64869;DHT22;51349;52.424;10.840;2023-05-29T20:26:03;14.20;77.20
64869;DHT22;51349;52.424;10.840;2023-05-29T20:31:04;14.10;78.50
64869;DHT22;51349;52.424;10.840;2023-05-29T20:36:06;14.00;80.00
64869;DHT22;51349;52.424;10.840;2023-05-29T20:41:07;13.90;81.90
64869;DHT22;51349;52.424;10.840;2023-05-29T20:46:09;13.70;82.10
64869;DHT22;51349;52.424;10.840;2023-05-29T20:51:09;13.50;81.20
64869;DHT22;51349;52.424;10.840;2023-05-29T20:56:10;13.30;82.70
64869;DHT22;51349;52.424;10.840;2023-05-29T21:01:11;13.20;82.40
64869;DHT22;51349;52.424;10.840;2023-05-29T21:06:12;13.20;82.20
64869;DHT22;51349;52.424;10.840;2023-05-29T21:11:13;13.10;82.60
64869;DHT22;51349;52.424;10.840;2023-05-29T21:16:15;13.10;82.90
64869;DHT22;51349;52.424;10.840;2023-05-29T21:21:15;13.10;83.10
64869;DHT22;51349;52.424;10.840;2023-05-29T21:26:16;13.10;84.50
64869;DHT22;51349;52.424;10.840;2023-05-29T21:31:20;13.10;84.80
64869;DHT22;51349;52.424;10.840;2023-05-29T21:36:21;13.00;85.50
64869;DHT22;51349;52.424;10.840;2023-05-29T21:41:24;13.10;85.60
64869;DHT22;51349;52.424;10.840;2023-05-29T21:46:25;13.10;85.00
64869;DHT22;51349;52.424;10.840;2023-05-29T21:51:26;13.10;86.00
64869;DHT22;51349;52.424;10.840;2023-05-29T21:56:27;12.90;86.90
64869;DHT22;51349;52.424;10.840;2023-05-29T22:01:30;12.80;87.60
64869;DHT22;51349;52.424;10.840;2023-05-29T22:06:30;12.70;88.90
64869;DHT22;51349;52.424;10.840;2023-05-29T22:11:32;12.70;89.30
64869;DHT22;51349;52.424;10.840;2023-05-29T22:16:34;12.80;89.20
64869;DHT22;51349;52.424;10.840;2023-05-29T22:21:35;12.70;90.20
64869;DHT22;51349;52.424;10.840;2023-05-29T22:26:36;12.70;90.40
64869;DHT22;51349;52.424;10.840;2023-05-29T22:31:37;12.60;90.80
64869;DHT22;51349;52.424;10.840;2023-05-29T22:36:38;12.50;91.10
64869;DHT22;51349;52.424;10.840;2023-05-29T22:41:39;12.40;91.60
64869;DHT22;51349;52.424;10.840;2023-05-29T22:46:39;12.20;91.70
64869;DHT22;51349;52.424;10.840;2023-05-29T22:51:40;12.10;92.00
64869;DHT22;51349;52.424;10.840;2023-05-29T22:56:41;12.00;92.60
64869;DHT22;51349;52.424;10.840;2023-05-29T23:01:42;11.90;92.70
64869;DHT22;51349;52.424;10.840;2023-05-29T23:06:45;11.90;92.90
64869;DHT22;51349;52.424;10.840;2023-05-29T23:11:49;11.80;93.70
64869;DHT22;51349;52.424;10.840;2023-05-29T23:16:51;11.80;93.30
64869;DHT22;51349;52.424;10.840;2023-05-29T23:21:51;11.70;93.60
64869;DHT22;51349;52.424;10.840;2023-05-29T23:26:54;11.50;93.90
64869;DHT22;51349;52.424;10.840;2023-05-29T23:31:54;11.50;93.80
64869;DHT22;51349;52.424;10.840;2023-05-29T23:36:55;11.40;94.20
64869;DHT22;51349;52.424;10.840;2023-05-29T23:41:56;11.30;94.80
64869;DHT22;51349;52.424;10.840;2023-05-29T23:46:57;11.20;94.80
64869;DHT22;51349;52.424;10.840;2023-05-29T23:51:59;11.20;94.70
64869;DHT22;51349;52.424;10.840;2023-05-29T23:57:01;11.10;95.00
